Time;durP1;ratioP1;P1;durP2;ratioP2;P2;SDS_P1;SDS_P2;PMS_P1;PMS_P2;Temp;Humidity;BMP_temperature;BMP_pressure;BME280_temperature;BME280_humidity;BME280_pressure;Samples;Min_cycle;Max_cycle;Signal;HPM_P1;HPM_P2
2023/06/10 00:00:26;;;;;;;13.70;9.20;;;18.50;1.00;;;;;;4975019;28;20424;-74
2023/06/10 00:02:52;;;;;;;13.37;9.17;;;18.40;1.00;;;;;;4971266;28;20440;-74
2023/06/10 00:05:25;;;;;;;12.67;10.07;;;18.40;1.00;;;;;;4974526;28;20169;-74
2023/06/10 00:07:55;;;;;;;10.17;9.13;;;18.30;1.00;;;;;;4975705;28;20199;-75
2023/06/10 00:10:20;;;;;;;17.40;10.20;;;18.30;1.00;;;;;;4969652;28;20398;-74
2023/06/10 00:12:46;;;;;;;15.40;10.67;;;18.20;1.00;;;;;;4973460;28;20444;-74
2023/06/10 00:15:12;;;;;;;22.13;11.07;;;18.10;1.00;;;;;;4972820;28;20186;-78
2023/06/10 00:17:43;;;;;;;16.80;10.83;;;18.10;1.00;;;;;;4969373;28;20198;-78
2023/06/10 00:20:13;;;;;;;27.93;10.93;;;18.00;1.00;;;;;;4974043;28;20274;-78
2023/06/10 00:22:45;;;;;;;14.23;9.77;;;18.00;1.00;;;;;;4971963;28;21063;-78
2023/06/10 00:25:13;;;;;;;17.23;9.67;;;17.90;1.00;;;;;;4968964;28;20431;-78
2023/06/10 00:27:42;;;;;;;21.67;10.40;;;17.90;1.00;;;;;;4970593;28;20790;-78
2023/06/10 00:30:13;;;;;;;12.00;9.63;;;17.90;1.00;;;;;;4975594;28;20945;-78
2023/06/10 00:32:39;;;;;;;13.93;10.10;;;17.80;1.00;;;;;;4969467;28;20431;-78
2023/06/10 00:35:07;;;;;;;16.40;10.80;;;17.70;1.00;;;;;;4977478;28;20428;-79
2023/06/10 00:37:43;;;;;;;22.00;10.63;;;17.70;1.00;;;;;;4972087;28;20212;-78
2023/06/10 00:40:12;;;;;;;15.20;10.50;;;17.60;1.00;;;;;;4977191;28;20440;-78
2023/06/10 00:42:38;;;;;;;17.20;10.50;;;17.60;1.00;;;;;;4971940;28;20921;-79
2023/06/10 00:45:13;;;;;;;18.80;10.53;;;17.60;1.00;;;;;;4956717;28;20539;-78
2023/06/10 00:47:43;;;;;;;27.73;11.50;;;17.50;1.00;;;;;;4959747;28;20187;-78
2023/06/10 00:50:09;;;;;;;15.20;10.83;;;17.50;1.00;;;;;;4977527;28;20473;-78
2023/06/10 00:52:46;;;;;;;20.90;11.30;;;17.40;1.00;;;;;;4972996;28;20436;-78
2023/06/10 00:55:12;;;;;;;17.20;10.60;;;17.40;1.00;;;;;;4968687;28;20423;-79
2023/06/10 00:57:45;;;;;;;17.57;10.83;;;17.40;1.00;;;;;;4976721;28;20460;-78
2023/06/10 01:00:13;;;;;;;16.67;10.60;;;17.30;1.00;;;;;;4976816;28;20442;-74
2023/06/10 01:02:39;;;;;;;19.70;11.10;;;17.30;1.00;;;;;;4976498;28;20486;-74
2023/06/10 01:05:05;;;;;;;16.57;11.30;;;17.20;1.00;;;;;;4977026;28;20416;-74
2023/06/10 01:07:39;;;;;;;20.90;11.37;;;17.20;1.00;;;;;;4982893;28;20191;-74
2023/06/10 01:10:09;;;;;;;23.23;12.70;;;17.20;1.00;;;;;;4977391;28;20492;-74
2023/06/10 01:12:48;;;;;;;21.00;11.47;;;17.10;1.00;;;;;;4974849;28;20447;-74
2023/06/10 01:15:19;;;;;;;19.50;10.90;;;17.10;1.00;;;;;;4977528;28;20480;-74
2023/06/10 01:18:09;;;;;;;18.50;12.03;;;17.00;1.00;;;;;;4973703;28;20441;-74
2023/06/10 01:20:40;;;;;;;19.10;12.20;;;17.00;1.00;;;;;;4970667;28;20406;-74
2023/06/10 01:23:12;;;;;;;20.53;11.90;;;16.90;1.00;;;;;;4974006;28;20430;-74
2023/06/10 01:25:50;;;;;;;25.20;12.40;;;16.90;1.00;;;;;;4976939;28;20929;-74
2023/06/10 01:28:26;;;;;;;17.13;11.20;;;16.80;1.00;;;;;;4972270;28;20454;-74
2023/06/10 01:31:09;;;;;;;22.10;11.87;;;16.80;1.00;;;;;;4955346;28;20765;-74
2023/06/10 01:33:41;;;;;;;21.10;12.70;;;16.80;1.00;;;;;;4970491;28;20427;-75
2023/06/10 01:36:08;;;;;;;19.07;12.60;;;16.80;1.00;;;;;;4972064;28;20439;-74
2023/06/10 01:38:42;;;;;;;29.83;14.83;;;16.70;1.00;;;;;;4972585;28;20534;-75
2023/06/10 01:41:09;;;;;;;18.23;12.00;;;16.70;1.00;;;;;;4975744;28;20431;-74
2023/06/10 01:43:37;;;;;;;19.80;12.13;;;16.70;1.00;;;;;;4958263;28;20468;-74
2023/06/10 01:46:13;;;;;;;20.33;12.10;;;16.60;1.00;;;;;;4975070;28;20440;-78
2023/06/10 01:48:49;;;;;;;20.70;13.00;;;16.70;1.00;;;;;;4975754;28;20418;-79
2023/06/10 01:51:31;;;;;;;15.50;12.20;;;16.60;1.00;;;;;;4976315;28;20417;-78
2023/06/10 01:54:00;;;;;;;17.80;12.23;;;16.50;1.00;;;;;;4980589;28;20408;-79
2023/06/10 01:56:36;;;;;;;23.43;13.27;;;16.50;1.00;;;;;;4958515;28;20467;-78
2023/06/10 01:59:13;;;;;;;16.33;11.40;;;16.40;1.00;;;;;;4958086;28;20935;-78
2023/06/10 02:01:43;;;;;;;20.03;10.83;;;16.40;1.00;;;;;;4976396;28;20470;-78
2023/06/10 02:04:18;;;;;;;25.77;12.27;;;16.40;1.00;;;;;;4975475;28;20469;-78
2023/06/10 02:06:50;;;;;;;21.40;12.07;;;16.40;1.00;;;;;;4962865;28;20407;-78
2023/06/10 02:09:25;;;;;;;19.83;12.43;;;16.30;1.00;;;;;;4975292;28;20406;-78
2023/06/10 02:12:07;;;;;;;22.90;11.80;;;16.30;1.00;;;;;;4966626;28;20976;-79
2023/06/10 02:14:33;;;;;;;16.47;12.40;;;16.30;1.00;;;;;;4957988;28;20537;-79
2023/06/10 02:16:59;;;;;;;19.10;12.80;;;16.20;1.00;;;;;;4976147;28;20554;-78
2023/06/10 02:19:37;;;;;;;31.03;12.47;;;16.20;1.00;;;;;;4967854;28;20522;-78
2023/06/10 02:22:22;;;;;;;15.97;12.30;;;16.20;1.00;;;;;;4939794;28;20192;-80
2023/06/10 02:24:55;;;;;;;18.00;12.13;;;16.20;1.00;;;;;;4972553;28;20394;-78
2023/06/10 02:27:21;;;;;;;22.00;12.50;;;16.10;1.00;;;;;;4957721;28;20509;-78
2023/06/10 02:29:46;;;;;;;15.63;12.30;;;16.10;1.00;;;;;;4971334;28;20487;-78
2023/06/10 02:32:13;;;;;;;17.90;11.97;;;16.10;1.00;;;;;;4963439;28;20881;-74
2023/06/10 02:34:48;;;;;;;18.47;12.50;;;16.00;1.00;;;;;;4975183;28;20219;-74
2023/06/10 02:37:15;;;;;;;19.20;12.97;;;16.00;1.00;;;;;;4956125;29;20476;-75
2023/06/10 02:39:41;;;;;;;25.00;12.57;;;16.00;1.00;;;;;;4957804;28;20438;-74
2023/06/10 02:42:13;;;;;;;23.53;12.67;;;16.00;1.00;;;;;;4975049;28;20768;-74
2023/06/10 02:44:39;;;;;;;16.90;11.27;;;15.90;1.00;;;;;;4968914;28;20533;-74
2023/06/10 02:47:12;;;;;;;17.90;12.13;;;15.90;1.00;;;;;;4987618;28;20959;-78
2023/06/10 02:49:38;;;;;;;20.33;12.20;;;15.90;1.00;;;;;;4974873;28;20405;-78
2023/06/10 02:52:36;;;;;;;24.20;12.43;;;15.90;1.00;;;;;;4974663;28;20433;-78
2023/06/10 02:55:02;;;;;;;14.70;11.30;;;15.90;1.00;;;;;;4973324;28;20183;-78
2023/06/10 02:57:28;;;;;;;19.70;12.40;;;15.80;1.00;;;;;;4974400;28;20482;-78
2023/06/10 03:03:08;;;;;;;27.83;12.00;;;15.80;1.00;;;;;;4971195;28;20269;-74
2023/06/10 03:05:33;;;;;;;19.60;12.33;;;15.80;1.00;;;;;;4972880;28;20479;-75
2023/06/10 03:07:59;;;;;;;20.70;13.20;;;15.80;1.00;;;;;;4957210;28;20179;-75
2023/06/10 03:10:25;;;;;;;22.53;12.07;;;15.80;1.00;;;;;;4975048;28;20186;-74
2023/06/10 03:12:51;;;;;;;16.93;12.30;;;15.80;1.00;;;;;;4974526;28;20193;-75
2023/06/10 03:15:20;;;;;;;19.60;12.90;;;15.80;1.00;;;;;;4960311;28;20945;-74
2023/06/10 03:18:12;;;;;;;21.60;12.27;;;15.80;1.00;;;;;;4972322;28;20207;-78
2023/06/10 03:20:49;;;;;;;19.00;12.33;;;15.80;1.00;;;;;;4982262;28;20445;-79
2023/06/10 03:23:19;;;;;;;18.67;11.97;;;15.80;1.00;;;;;;4973900;28;20949;-78
2023/06/10 03:25:55;;;;;;;16.90;12.37;;;15.80;1.00;;;;;;4974568;28;20442;-79
2023/06/10 03:31:42;;;;;;;14.00;10.93;;;15.80;1.00;;;;;;4973825;28;20392;-75
2023/06/10 03:34:07;;;;;;;20.70;12.70;;;15.80;1.00;;;;;;4955974;28;20408;-75
2023/06/10 03:36:33;;;;;;;17.23;13.10;;;15.80;1.00;;;;;;4954929;28;20206;-74
2023/06/10 03:39:01;;;;;;;19.30;12.30;;;15.80;1.00;;;;;;4978461;28;20182;-75
2023/06/10 03:41:32;;;;;;;21.37;11.97;;;15.80;1.00;;;;;;4973578;28;20185;-75
2023/06/10 03:43:57;;;;;;;18.50;11.40;;;15.80;1.00;;;;;;4974163;28;20408;-75
2023/06/10 03:46:23;;;;;;;25.23;11.80;;;15.90;1.00;;;;;;4974815;28;20880;-75
2023/06/10 03:48:55;;;;;;;28.53;12.40;;;15.90;1.00;;;;;;4967781;28;20540;-74
2023/06/10 03:51:25;;;;;;;17.17;12.20;;;15.90;1.00;;;;;;4967719;28;20419;-75
2023/06/10 03:53:50;;;;;;;18.90;11.53;;;15.90;1.00;;;;;;4970336;28;20409;-75
2023/06/10 03:56:16;;;;;;;20.70;12.63;;;15.90;1.00;;;;;;4973909;28;20419;-74
2023/06/10 03:58:43;;;;;;;16.10;11.63;;;15.90;1.00;;;;;;4957679;28;20230;-75
2023/06/10 04:01:17;;;;;;;22.70;11.10;;;16.00;1.00;;;;;;4974891;28;20518;-76
2023/06/10 04:03:43;;;;;;;14.23;10.50;;;16.00;1.00;;;;;;4971140;28;20398;-75
2023/06/10 04:06:19;;;;;;;18.20;11.30;;;16.10;1.00;;;;;;4959775;28;20451;-75
2023/06/10 04:08:45;;;;;;;14.43;11.53;;;16.10;1.00;;;;;;4975116;28;20405;-75
2023/06/10 04:11:19;;;;;;;15.33;10.67;;;16.20;1.00;;;;;;4977922;28;20758;-74
2023/06/10 04:13:50;;;;;;;14.13;10.60;;;16.30;1.00;;;;;;4972702;28;20180;-75
2023/06/10 04:16:17;;;;;;;17.50;11.80;;;16.30;1.00;;;;;;4968517;28;20397;-76
2023/06/10 04:18:42;;;;;;;15.33;10.73;;;16.30;1.00;;;;;;4981825;28;20499;-78
2023/06/10 04:21:13;;;;;;;17.93;10.40;;;16.40;1.00;;;;;;4985769;28;20447;-78
2023/06/10 04:23:43;;;;;;;14.40;11.00;;;16.40;1.00;;;;;;4977280;28;20257;-79
2023/06/10 04:26:12;;;;;;;15.70;10.90;;;16.50;1.00;;;;;;4976891;28;20925;-79
2023/06/10 04:28:44;;;;;;;18.53;10.33;;;16.50;1.00;;;;;;4972133;28;20447;-78
2023/06/10 04:31:36;;;;;;;18.27;11.43;;;16.60;1.00;;;;;;4959217;28;20362;-78
2023/06/10 04:34:02;;;;;;;12.60;9.40;;;16.60;1.00;;;;;;4978902;28;20524;-75
2023/06/10 04:36:29;;;;;;;12.83;9.70;;;16.70;1.00;;;;;;4976379;28;20528;-75
2023/06/10 04:38:55;;;;;;;15.40;10.27;;;16.80;1.00;;;;;;4988861;28;20179;-74
2023/06/10 04:41:22;;;;;;;19.93;10.40;;;16.80;1.00;;;;;;4977803;28;20504;-75
2023/06/10 04:43:47;;;;;;;13.17;9.83;;;16.90;1.00;;;;;;4972642;28;20202;-75
2023/06/10 04:46:13;;;;;;;13.87;9.70;;;17.00;1.00;;;;;;4957207;28;20925;-75
2023/06/10 04:48:40;;;;;;;12.27;10.00;;;17.00;1.00;;;;;;4977135;28;20176;-79
2023/06/10 04:51:05;;;;;;;13.77;9.80;;;17.10;1.00;;;;;;4958487;28;22076;-85
2023/06/10 04:53:37;;;;;;;13.03;9.63;;;17.20;1.00;;;;;;4973828;28;20436;-86
2023/06/10 04:56:31;;;;;;;13.63;9.50;;;17.20;1.00;;;;;;4972825;28;20435;-84
2023/06/10 05:03:12;;;;;;;17.43;9.90;;;17.40;1.00;;;;;;4974669;28;20406;-82
2023/06/10 05:05:38;;;;;;;11.00;9.33;;;17.50;1.00;;;;;;4957433;28;20521;-82
2023/06/10 05:11:25;;;;;;;11.50;9.70;;;17.60;1.00;;;;;;4961057;28;20648;-82
2023/06/10 05:17:13;;;;;;;11.90;8.90;;;17.90;1.00;;;;;;4964879;28;20312;-83
2023/06/10 05:19:38;;;;;;;18.17;9.27;;;18.00;1.00;;;;;;4972387;28;20899;-83
2023/06/10 05:22:30;;;;;;;13.00;8.77;;;18.10;1.00;;;;;;4970069;28;20186;-82
2023/06/10 05:32:02;;;;;;;15.27;8.00;;;18.40;1.00;;;;;;4965576;28;20406;-82
2023/06/10 05:34:31;;;;;;;9.77;7.87;;;18.50;1.00;;;;;;4975685;28;20694;-84
2023/06/10 05:37:06;;;;;;;11.50;8.13;;;18.70;1.00;;;;;;4956136;29;20467;-84
2023/06/10 05:42:54;;;;;;;9.10;7.90;;;18.90;1.00;;;;;;4973067;28;20403;-83
2023/06/10 05:48:54;;;;;;;10.10;7.77;;;19.20;1.00;;;;;;4969807;28;20197;-84
2023/06/10 05:54:42;;;;;;;10.80;7.60;;;19.50;1.00;;;;;;4977192;28;20506;-84
2023/06/10 05:57:54;;;;;;;12.80;7.20;;;19.60;1.00;;;;;;4967213;28;21027;-83
2023/06/10 06:03:42;;;;;;;10.57;6.77;;;19.90;1.00;;;;;;4972392;28;20390;-84
2023/06/10 06:06:20;;;;;;;14.33;7.20;;;20.00;1.00;;;;;;4975362;28;20431;-83
2023/06/10 06:09:06;;;;;;;10.63;7.00;;;20.20;1.00;;;;;;4954134;28;20519;-84
2023/06/10 06:12:18;;;;;;;11.43;7.00;;;20.30;1.00;;;;;;4958799;28;20398;-84
2023/06/10 06:15:01;;;;;;;15.07;7.20;;;20.40;1.00;;;;;;4958398;28;20423;-84
2023/06/10 06:17:37;;;;;;;9.00;6.50;;;20.50;1.00;;;;;;4965767;28;20530;-84
2023/06/10 06:20:04;;;;;;;15.10;7.43;;;20.60;1.00;;;;;;4974285;28;20493;-84
2023/06/10 06:22:37;;;;;;;11.40;7.00;;;20.80;1.00;;;;;;4964709;28;20438;-84
2023/06/10 06:28:43;;;;;;;9.07;6.60;;;21.00;1.00;;;;;;4970547;28;20439;-84
2023/06/10 06:31:31;;;;;;;8.30;6.90;;;21.20;1.00;;;;;;4975302;28;20435;-84
2023/06/10 06:34:13;;;;;;;12.73;7.00;;;21.30;1.00;;;;;;4958644;28;20562;-83
2023/06/10 06:36:55;;;;;;;14.73;6.50;;;21.50;1.00;;;;;;4957285;28;20790;-83
2023/06/10 06:39:54;;;;;;;7.40;6.07;;;21.60;1.00;;;;;;4957330;28;20440;-82
2023/06/10 06:42:31;;;;;;;8.13;6.30;;;21.80;1.00;;;;;;4961010;28;20425;-83
2023/06/10 06:44:58;;;;;;;10.70;7.20;;;21.90;1.00;;;;;;4971418;28;20431;-83
2023/06/10 06:48:06;;;;;;;9.23;6.47;;;22.00;1.00;;;;;;4975462;28;20413;-82
2023/06/10 06:54:30;;;;;;;10.30;6.40;;;22.30;1.00;;;;;;4985769;28;20807;-83
2023/06/10 06:57:18;;;;;;;7.93;6.97;;;22.50;1.00;;;;;;4956961;28;20488;-84
2023/06/10 07:07:18;;;;;;;10.53;7.50;;;22.80;1.00;;;;;;4965683;28;20951;-83
2023/06/10 07:09:49;;;;;;;7.97;6.30;;;23.00;1.00;;;;;;4983085;28;20473;-83
2023/06/10 07:12:15;;;;;;;9.10;6.70;;;23.20;1.00;;;;;;4974484;28;20422;-77
2023/06/10 07:14:55;;;;;;;10.03;7.60;;;23.20;1.00;;;;;;4974504;28;20436;-77
2023/06/10 07:17:25;;;;;;;9.33;6.97;;;23.30;1.00;;;;;;4957092;28;20982;-76
2023/06/10 07:19:51;;;;;;;14.37;6.97;;;23.30;1.00;;;;;;4973980;28;20462;-76
2023/06/10 07:26:35;;;;;;;13.83;7.23;;;23.60;1.00;;;;;;4974965;28;20435;-92
2023/06/10 07:29:19;;;;;;;9.43;7.07;;;;;;;;;;4957326;28;20475;-92
2023/06/10 07:32:12;;;;;;;10.83;6.80;;;23.90;1.00;;;;;;4950452;28;20851;-91
2023/06/10 07:34:55;;;;;;;8.37;6.60;;;22.40;1.00;;;;;;4958344;28;20432;-92
2023/06/10 07:44:32;;;;;;;12.03;6.97;;;24.30;1.00;;;;;;4978910;28;20795;-96
2023/06/10 07:54:36;;;;;;;8.77;7.47;;;24.50;1.00;;;;;;4975148;28;20810;-93
2023/06/10 07:57:13;;;;;;;11.53;7.10;;;24.70;1.00;;;;;;4950176;28;20596;-93
2023/06/10 08:03:07;;;;;;;7.13;6.47;;;24.90;1.00;;;;;;4971528;28;20771;-93
2023/06/10 08:08:54;;;;;;;8.00;6.40;;;25.10;1.00;;;;;;4973864;28;20479;-85
2023/06/10 08:11:31;;;;;;;7.30;6.50;;;25.30;1.00;;;;;;4978070;28;20419;-85
2023/06/10 08:14:07;;;;;;;7.97;6.47;;;25.40;1.00;;;;;;4960692;28;20190;-85
2023/06/10 08:16:37;;;;;;;9.50;7.00;;;25.50;1.00;;;;;;4960891;28;20957;-85
2023/06/10 08:19:02;;;;;;;9.67;6.90;;;25.60;1.00;;;;;;4973876;28;20585;-85
2023/06/10 08:22:12;;;;;;;15.13;6.60;;;25.80;1.00;;;;;;4960184;28;20424;-84
2023/06/10 08:25:00;;;;;;;11.83;6.80;;;25.90;1.00;;;;;;4966789;28;20174;-85
2023/06/10 08:27:56;;;;;;;28.83;7.00;;;26.00;1.00;;;;;;4973234;28;20487;-85
2023/06/10 08:30:42;;;;;;;7.87;7.17;;;26.20;1.00;;;;;;4954263;28;20451;-85
2023/06/10 08:33:25;;;;;;;18.03;7.07;;;26.20;1.00;;;;;;4983642;28;20519;-85
2023/06/10 08:39:48;;;;;;;7.63;6.83;;;26.40;1.00;;;;;;4968229;28;20497;-85
2023/06/10 08:42:25;;;;;;;31.03;6.23;;;26.40;1.00;;;;;;4985038;28;20449;-84
2023/06/10 08:45:43;;;;;;;10.87;7.20;;;26.50;1.00;;;;;;4957090;29;20426;-85
2023/06/10 08:52:07;;;;;;;8.50;6.73;;;26.70;1.00;;;;;;4977239;28;20408;-93
2023/06/10 08:55:27;;;;;;;10.40;7.20;;;26.70;1.00;;;;;;4956276;28;20430;-92
2023/06/10 09:01:43;;;;;;;14.40;7.00;;;26.90;1.00;;;;;;4924742;29;20399;-96
2023/06/10 09:04:09;;;;;;;11.33;7.00;;;27.00;1.00;;;;;;4936110;29;20527;-87
2023/06/10 09:13:25;;;;;;;16.93;6.90;;;27.30;1.00;;;;;;4930882;29;20518;-87
2023/06/10 09:16:42;;;;;;;9.20;6.50;;;27.40;1.00;;;;;;4911323;29;20451;-86
2023/06/10 09:19:48;;;;;;;9.20;7.03;;;27.60;1.00;;;;;;4922599;29;20474;-88
2023/06/10 09:23:06;;;;;;;7.70;6.40;;;27.70;1.00;;;;;;4931038;29;20448;-88
2023/06/10 09:29:03;;;;;;;11.53;7.00;;;28.00;1.00;;;;;;4934844;29;20522;-87
2023/06/10 09:41:45;;;;;;;12.63;7.07;;;28.30;1.00;;;;;;4974539;28;20541;-88
2023/06/10 09:45:01;;;;;;;7.30;6.60;;;28.50;1.00;;;;;;4948027;28;20428;-88
2023/06/10 09:50:49;;;;;;;11.70;8.93;;;28.60;1.00;;;;;;4977034;28;20400;-88
2023/06/10 09:53:37;;;;;;;13.40;8.33;;;28.70;1.00;;;;;;4959655;28;20437;-88
2023/06/10 09:59:38;;;;;;;23.07;11.17;;;29.00;1.00;;;;;;4976722;28;20519;-88
2023/06/10 10:02:43;;;;;;;12.83;7.57;;;29.00;1.00;;;;;;4972071;28;20429;-88
2023/06/10 10:05:25;;;;;;;6.43;5.83;;;29.10;1.00;;;;;;4956250;28;20429;-88
2023/06/10 10:14:47;;;;;;;9.07;6.50;;;29.50;1.00;;;;;;4971515;28;20904;-87
2023/06/10 10:17:20;;;;;;;7.20;6.50;;;29.60;1.00;;;;;;4958858;28;20961;-88
2023/06/10 10:23:43;;;;;;;10.47;5.87;;;29.60;1.00;;;;;;4991631;28;20455;-88
2023/06/10 10:26:21;;;;;;;6.90;5.50;;;29.50;1.00;;;;;;4989082;28;20446;-88
2023/06/10 10:32:48;;;;;;;9.33;5.17;;;29.50;1.00;;;;;;4987317;28;20423;-88
2023/06/10 10:35:43;;;;;;;14.10;5.90;;;29.50;1.00;;;;;;4965667;28;20789;-88
2023/06/10 10:38:20;;;;;;;7.80;5.57;;;29.70;1.00;;;;;;4977660;28;20898;-87
2023/06/10 10:40:50;;;;;;;21.03;5.80;;;30.00;1.00;;;;;;4976601;28;20514;-81
2023/06/10 10:43:19;;;;;;;6.37;5.77;;;30.10;1.00;;;;;;4964512;28;20956;-81
2023/06/10 10:46:13;;;;;;;5.57;4.63;;;30.10;1.00;;;;;;4990234;28;20440;-81
2023/06/10 10:48:57;;;;;;;6.20;5.00;;;30.20;1.00;;;;;;4975129;28;20422;-81
2023/06/10 10:52:01;;;;;;;5.57;4.93;;;30.40;1.00;;;;;;4981518;28;20488;-88
2023/06/10 10:54:50;;;;;;;5.30;4.80;;;30.60;1.00;;;;;;4973168;28;20417;-88
2023/06/10 10:57:28;;;;;;;6.00;4.83;;;30.70;1.00;;;;;;4972488;28;20552;-88
2023/06/10 11:03:17;;;;;;;5.87;4.40;;;31.00;1.00;;;;;;4975790;28;20405;-89
2023/06/10 11:05:48;;;;;;;4.93;4.43;;;31.20;1.00;;;;;;4993590;28;20795;-89
2023/06/10 11:12:25;;;;;;;4.90;4.60;;;31.50;1.00;;;;;;4982478;28;20430;-90
2023/06/10 11:18:25;;;;;;;4.70;4.30;;;31.70;1.00;;;;;;4992315;28;20475;-80
2023/06/10 11:21:43;;;;;;;6.20;4.20;;;32.00;1.00;;;;;;4980078;28;20398;-91
2023/06/10 11:28:24;;;;;;;4.87;4.47;;;32.00;1.00;;;;;;4993900;28;20476;-87
2023/06/10 11:41:49;;;;;;;7.13;4.70;;;31.40;1.00;;;;;;4991171;28;20919;-86
2023/06/10 11:44:50;;;;;;;5.30;4.80;;;31.70;1.00;;;;;;4974172;28;20452;-91
2023/06/10 11:50:37;;;;;;;11.60;4.60;;;32.50;1.00;;;;;;4991897;28;20428;-85
2023/06/10 11:53:25;;;;;;;10.77;5.10;;;32.70;1.00;;;;;;4994572;28;20429;-88
2023/06/10 11:59:12;;;;;;;4.67;4.27;;;32.80;1.00;;;;;;4984283;28;20472;-88
2023/06/10 12:02:01;;;;;;;4.53;3.83;;;32.70;1.00;;;;;;4973681;28;20429;-86
2023/06/10 12:04:43;;;;;;;9.10;4.60;;;32.50;1.00;;;;;;4976582;28;20272;-90
2023/06/10 12:07:19;;;;;;;4.63;3.77;;;32.40;1.00;;;;;;4975928;28;20429;-89
2023/06/10 12:09:59;;;;;;;6.00;4.00;;;32.70;1.00;;;;;;4960759;28;20407;-89
2023/06/10 12:12:25;;;;;;;4.60;3.63;;;32.90;1.00;;;;;;4973848;28;20438;-90
2023/06/10 12:24:59;;;;;;;4.83;4.33;;;33.40;1.00;;;;;;4991587;28;20447;-89
2023/06/10 12:28:07;;;;;;;4.77;3.83;;;33.00;1.00;;;;;;4980371;28;20532;-88
2023/06/10 12:34:42;;;;;;;8.30;4.30;;;32.30;1.00;;;;;;4988587;28;20404;-88
2023/06/10 12:40:34;;;;;;;9.27;4.40;;;31.70;1.00;;;;;;4987137;28;20455;-92
2023/06/10 12:46:55;;;;;;;4.80;4.37;;;31.50;1.00;;;;;;4991063;28;20400;-92
2023/06/10 12:49:31;;;;;;;9.30;4.33;;;31.50;1.00;;;;;;4979915;28;20440;-92
2023/06/10 12:52:01;;;;;;;6.53;4.70;;;31.50;1.00;;;;;;4980205;28;21014;-92
2023/06/10 12:54:37;;;;;;;5.73;4.40;;;31.50;1.00;;;;;;4964399;28;20747;-92
2023/06/10 13:04:51;;;;;;;4.73;4.23;;;32.00;1.00;;;;;;4980869;28;20467;-91
2023/06/10 13:10:55;;;;;;;9.43;3.90;;;32.50;1.00;;;;;;4997397;28;20532;-87
2023/06/10 13:17:31;;;;;;;5.00;4.50;;;32.50;1.00;;;;;;4997028;28;20543;-87
2023/06/10 13:23:37;;;;;;;5.53;4.40;;;33.00;1.00;;;;;;4989252;28;20431;-89
2023/06/10 13:26:36;;;;;;;5.83;4.27;;;33.10;1.00;;;;;;4968735;28;20482;-88
2023/06/10 13:33:01;;;;;;;5.00;4.50;;;32.70;1.00;;;;;;4991887;28;20463;-90
2023/06/10 13:35:37;;;;;;;4.10;3.80;;;32.40;1.00;;;;;;4974299;28;20421;-89
2023/06/10 13:41:28;;;;;;;7.00;4.43;;;32.00;1.00;;;;;;4993473;28;20633;-92
2023/06/10 13:44:19;;;;;;;6.37;4.40;;;31.70;1.00;;;;;;4976369;28;20773;-92
2023/06/10 13:46:49;;;;;;;5.83;4.70;;;32.00;1.00;;;;;;4962729;28;20430;-93
2023/06/10 13:49:55;;;;;;;4.20;3.80;;;32.20;1.00;;;;;;4961953;28;20441;-92
2023/06/10 13:52:46;;;;;;;8.13;4.50;;;32.60;1.00;;;;;;4978783;28;20433;-91
2023/06/10 13:58:38;;;;;;;9.87;4.67;;;;;;;;;;4985820;28;20532;-87
2023/06/10 14:04:26;;;;;;;4.60;3.73;;;;;;;;;;4996293;28;20463;-93
2023/06/10 14:06:55;;;;;;;7.13;3.43;;;32.90;1.00;;;;;;4978764;28;20421;-84
2023/06/10 14:09:31;;;;;;;3.90;3.60;;;32.90;1.00;;;;;;4974941;28;20852;-82
2023/06/10 14:11:57;;;;;;;3.90;3.60;;;32.80;1.00;;;;;;4976634;28;20932;-84
2023/06/10 14:14:38;;;;;;;3.67;3.37;;;32.80;1.00;;;;;;4974169;28;20437;-84
2023/06/10 14:20:26;;;;;;;3.70;3.47;;;33.40;1.00;;;;;;4990716;28;20420;-83
2023/06/10 14:26:21;;;;;;;6.87;3.83;;;34.10;1.00;;;;;;4992316;28;20519;-81
2023/06/10 14:29:28;;;;;;;3.77;3.47;;;34.30;1.00;;;;;;4974855;28;20445;-81
2023/06/10 14:32:25;;;;;;;4.13;3.23;;;34.50;1.00;;;;;;4994221;28;20913;-81
2023/06/10 14:34:55;;;;;;;4.00;3.70;;;34.60;1.00;;;;;;4994357;28;20421;-82
2023/06/10 14:40:43;;;;;;;5.23;4.10;;;34.60;1.00;;;;;;4986078;28;20907;-83
2023/06/10 14:43:09;;;;;;;8.00;3.70;;;34.60;1.00;;;;;;4992957;28;20436;-83
2023/06/10 14:45:55;;;;;;;3.93;3.53;;;34.70;1.00;;;;;;4994758;28;20170;-83
2023/06/10 14:48:31;;;;;;;7.30;3.17;;;34.80;1.00;;;;;;4972549;28;20493;-82
2023/06/10 14:51:25;;;;;;;6.93;3.40;;;34.80;1.00;;;;;;4993178;28;20519;-83
2023/06/10 14:53:55;;;;;;;4.60;3.30;;;34.70;1.00;;;;;;4976619;28;20432;-83
2023/06/10 14:56:37;;;;;;;3.33;3.03;;;34.70;1.00;;;;;;4994857;28;20904;-83
2023/06/10 14:59:13;;;;;;;3.00;2.80;;;34.50;1.00;;;;;;4994119;28;20440;-82
2023/06/10 15:02:13;;;;;;;5.83;3.47;;;34.30;1.00;;;;;;4957649;28;20402;-83
2023/06/10 15:04:49;;;;;;;3.67;3.43;;;34.20;1.00;;;;;;4964962;28;20444;-82
2023/06/10 15:07:25;;;;;;;3.83;3.40;;;34.20;1.00;;;;;;4988932;28;20985;-83
2023/06/10 15:10:13;;;;;;;7.60;3.40;;;34.60;1.00;;;;;;4976535;28;20436;-82
2023/06/10 15:12:43;;;;;;;4.90;3.60;;;34.50;1.00;;;;;;4989889;28;20830;-81
2023/06/10 15:15:09;;;;;;;7.30;3.90;;;34.20;1.00;;;;;;4978024;28;20961;-82
2023/06/10 15:17:35;;;;;;;6.37;3.80;;;33.90;1.00;;;;;;4987904;28;20599;-82
2023/06/10 15:23:31;;;;;;;4.27;3.97;;;33.20;1.00;;;;;;4986403;28;20197;-81
2023/06/10 15:26:13;;;;;;;7.87;4.23;;;32.80;1.00;;;;;;4976487;28;20452;-82
2023/06/10 15:28:39;;;;;;;5.60;4.10;;;32.60;1.00;;;;;;4993309;28;20436;-81
2023/06/10 15:31:19;;;;;;;5.07;3.77;;;32.30;1.00;;;;;;4990733;28;20768;-81
2023/06/10 15:34:13;;;;;;;5.37;3.80;;;32.10;1.00;;;;;;4994011;28;20185;-81
2023/06/10 15:36:39;;;;;;;4.87;4.27;;;32.10;1.00;;;;;;4976329;28;20421;-82
2023/06/10 15:39:13;;;;;;;8.30;3.67;;;33.70;1.00;;;;;;4993510;28;20475;-82
2023/06/10 15:41:49;;;;;;;3.33;3.03;;;36.10;1.00;;;;;;4993596;28;20192;-82
2023/06/10 15:44:19;;;;;;;10.37;3.27;;;38.50;1.00;;;;;;4989817;28;20817;-82
2023/06/10 15:47:01;;;;;;;3.23;3.00;;;40.40;1.00;;;;;;4980883;28;20425;-82
2023/06/10 15:49:43;;;;;;;2.83;2.63;;;42.30;1.00;;;;;;4976415;28;20417;-82
2023/06/10 15:52:09;;;;;;;3.00;2.57;;;44.10;1.00;;;;;;4993777;28;20408;-82
2023/06/10 15:55:07;;;;;;;2.50;2.30;;;45.50;1.00;;;;;;4987336;28;20483;-83
2023/06/10 15:57:43;;;;;;;1.70;1.70;;;46.70;1.00;;;;;;4974631;28;20293;-84
2023/06/10 16:00:31;;;;;;;4.87;2.43;;;48.00;1.00;;;;;;4985716;28;20428;-85
2023/06/10 16:03:07;;;;;;;2.40;2.10;;;48.40;1.00;;;;;;4997472;28;20412;-85
2023/06/10 16:05:43;;;;;;;4.50;2.00;;;48.80;1.00;;;;;;4978031;28;21001;-85
2023/06/10 16:11:31;;;;;;;4.00;1.93;;;49.80;1.00;;;;;;4993494;28;20443;-83
2023/06/10 16:14:13;;;;;;;3.33;2.03;;;49.80;1.00;;;;;;4988497;28;20518;-82
2023/06/10 16:16:43;;;;;;;3.07;2.00;;;49.60;1.00;;;;;;4985902;28;20424;-82
2023/06/10 16:19:19;;;;;;;6.97;2.77;;;48.60;1.00;;;;;;4980025;28;20870;-82
2023/06/10 16:21:55;;;;;;;2.40;2.10;;;48.30;1.00;;;;;;4997119;28;20911;-82
2023/06/10 16:24:43;;;;;;;6.23;2.50;;;48.10;1.00;;;;;;4994767;28;20413;-82
2023/06/10 16:27:13;;;;;;;2.67;2.47;;;46.90;1.00;;;;;;4991955;28;20491;-82
2023/06/10 16:29:43;;;;;;;6.70;3.57;;;45.20;1.00;;;;;;4991841;28;20425;-82
2023/06/10 16:32:19;;;;;;;4.30;3.00;;;43.60;1.00;;;;;;4989766;28;20940;-82
2023/06/10 16:34:49;;;;;;;4.10;3.70;;;42.10;1.00;;;;;;4966912;28;20417;-82
2023/06/10 16:37:43;;;;;;;3.73;3.43;;;40.70;1.00;;;;;;4978789;28;21031;-82
2023/06/10 16:40:43;;;;;;;3.27;2.50;;;40.10;1.00;;;;;;4971011;28;20429;-81
2023/06/10 16:43:49;;;;;;;3.60;3.30;;;39.10;1.00;;;;;;4992505;28;20943;-84
2023/06/10 16:46:37;;;;;;;4.10;3.50;;;39.00;1.00;;;;;;4980253;28;20431;-93
2023/06/10 16:52:43;;;;;;;3.10;3.00;;;40.00;1.00;;;;;;4997302;28;20548;-92
2023/06/10 16:55:19;;;;;;;8.23;3.40;;;40.70;1.00;;;;;;4977579;28;20429;-92
2023/06/10 17:01:49;;;;;;;3.30;3.10;;;42.90;1.00;;;;;;4997119;28;20424;-88
2023/06/10 17:04:31;;;;;;;3.67;2.40;;;44.00;1.00;;;;;;4963874;28;20429;-89
2023/06/10 17:07:01;;;;;;;12.40;2.97;;;44.80;1.00;;;;;;4971070;28;20439;-88
2023/06/10 17:12:56;;;;;;;6.73;2.67;;;;;;;;;;4994716;28;20479;-88
2023/06/10 17:15:51;;;;;;;2.67;2.47;;;45.50;1.00;;;;;;4969301;28;20517;-89
2023/06/10 17:18:55;;;;;;;2.57;2.40;;;46.10;1.00;;;;;;4976630;28;20469;-90
2023/06/10 17:21:21;;;;;;;3.57;2.83;;;46.10;1.00;;;;;;4994608;28;20451;-89
2023/06/10 17:23:56;;;;;;;3.17;2.70;;;;;;;;;;4977427;28;20410;-86
2023/06/10 17:26:26;;;;;;;2.80;2.60;;;45.60;1.00;;;;;;4990646;28;20614;-86
2023/06/10 17:28:55;;;;;;;7.50;3.23;;;45.10;1.00;;;;;;4994478;28;20556;-87
2023/06/10 17:31:22;;;;;;;3.53;3.20;;;45.00;1.00;;;;;;4995796;28;20425;-86
2023/06/10 17:33:49;;;;;;;3.50;3.20;;;44.70;1.00;;;;;;4979544;28;20465;-89
2023/06/10 17:36:20;;;;;;;3.90;3.43;;;;;;;;;;4981753;28;21054;-89
2023/06/10 17:38:46;;;;;;;5.37;3.10;;;;;;;;;;4978766;28;20452;-90
2023/06/10 17:41:12;;;;;;;3.20;3.00;;;;;;;;;;4988980;28;20884;-90